Lake Kitchawan, New York
Current Conditions -  °F | °C
As of 5:53 PM on Monday 24 Nov 2014 (Local Time) from KDXR Reporting Station
Clear Clear  
Wind Chill: 62°   Ceiling: Unl
Heat Index: 62°   Visibility: 10mi
Dew Point: 53°   Wind: 13mph
Humidity: 72%   Direction: 190°S
Pressure: 29.65"   Gusts: 21mph
Location:  41.2554°N, 73.5385°W
Report Text: KDXR 242253Z 19011G18KT 10SM CLR 17/12 A2965 RMK AO2 SLP038 T01670117
Loading
Personal Weather Stations






























Interactive Weather Map New forecast layout! Learn more

10-Day Weather Forecast

Advertisements
Track Severe Weather on mobile